createdAt,value
2023-03-07T00:04:23.355Z,70.49
2023-03-07T00:09:44.602Z,70.49
2023-03-07T00:14:52.669Z,70.25
2023-03-07T00:19:54.310Z,70.37
2023-03-07T00:24:56.005Z,69.97
2023-03-07T00:29:58.670Z,70.25
2023-03-07T00:35:04.359Z,70.49
2023-03-07T00:40:09.578Z,70.66
2023-03-07T00:45:13.719Z,70.83
2023-03-07T00:50:18.195Z,71.09
2023-03-07T00:55:20.683Z,71.16
2023-03-07T01:00:22.561Z,71.28
2023-03-07T01:05:24.754Z,71.36
2023-03-07T01:10:28.202Z,71.71
2023-03-07T01:15:30.869Z,71.73
2023-03-07T01:20:35.311Z,71.80
2023-03-07T01:25:39.530Z,71.36
2023-03-07T01:30:41.895Z,71.08
2023-03-07T01:35:44.099Z,70.91
2023-03-07T01:40:46.444Z,70.74
2023-03-07T01:45:48.495Z,70.65
2023-03-07T01:50:51.672Z,70.67
2023-03-07T01:55:53.692Z,70.70
2023-03-07T02:00:55.999Z,70.77
2023-03-07T02:06:05.532Z,70.78
2023-03-07T02:11:08.025Z,70.81
2023-03-07T02:16:10.181Z,70.83
2023-03-07T02:21:44.055Z,70.72
2023-03-07T02:26:51.939Z,70.59
2023-03-07T02:31:54.253Z,70.66
2023-03-07T02:37:04.982Z,70.56
2023-03-07T02:42:14.200Z,70.68
2023-03-07T02:47:21.641Z,70.65
2023-03-07T02:52:24.170Z,70.67
2023-03-07T02:57:26.370Z,70.81
2023-03-07T03:02:28.405Z,70.72
2023-03-07T03:07:30.530Z,70.72
2023-03-07T03:12:32.349Z,70.58
2023-03-07T03:17:34.312Z,70.45
2023-03-07T03:22:36.110Z,70.78
2023-03-07T03:27:40.009Z,70.74
2023-03-07T03:32:43.764Z,70.54
2023-03-07T03:37:46.914Z,70.36
2023-03-07T03:42:50.916Z,70.34
2023-03-07T03:47:53.159Z,70.18
2023-03-07T03:52:54.998Z,70.04
2023-03-07T03:57:58.521Z,70.01
2023-03-07T04:03:00.386Z,70.01
2023-03-07T04:08:03.131Z,70.01
2023-03-07T04:13:05.158Z,69.93
2023-03-07T04:18:07.277Z,70.08
2023-03-07T04:23:09.190Z,70.14
2023-03-07T04:28:11.053Z,70.13
2023-03-07T04:33:13.082Z,70.25
2023-03-07T04:38:15.666Z,70.28
2023-03-07T04:43:17.727Z,70.32
2023-03-07T04:48:20.175Z,70.31
2023-03-07T04:53:22.505Z,70.33
2023-03-07T04:58:25.119Z,70.45
2023-03-07T05:06:31.913Z,70.69
2023-03-07T05:11:33.995Z,71.34
2023-03-07T05:16:36.102Z,71.87
2023-03-07T05:21:40.102Z,72.11
2023-03-07T05:26:42.503Z,72.19
2023-03-07T05:31:44.376Z,72.43
2023-03-07T05:36:47.173Z,72.72
2023-03-07T05:41:49.148Z,72.66
2023-03-07T05:46:51.958Z,72.70
2023-03-07T05:51:54.300Z,72.83
2023-03-07T05:56:56.733Z,72.96
2023-03-07T06:01:59.441Z,72.79
2023-03-07T06:07:01.427Z,72.87
2023-03-07T06:12:03.634Z,72.99
2023-03-07T06:17:06.230Z,72.78
2023-03-07T06:22:09.091Z,72.35
2023-03-07T06:27:11.210Z,72.11
2023-03-07T06:32:13.070Z,71.94
2023-03-07T06:37:15.163Z,71.42
2023-03-07T06:42:16.862Z,70.88
2023-03-07T06:47:18.815Z,70.32
2023-03-07T06:52:20.697Z,69.82
2023-03-07T06:57:22.816Z,69.23
2023-03-07T07:02:25.140Z,68.78
2023-03-07T07:07:27.529Z,68.46
2023-03-07T07:12:29.401Z,67.98
2023-03-07T07:17:35.499Z,67.49
2023-03-07T07:22:37.338Z,66.89
2023-03-07T07:27:39.124Z,66.51
2023-03-07T07:32:41.456Z,66.22
2023-03-07T07:38:03.557Z,65.92
2023-03-07T07:43:05.814Z,65.28
2023-03-07T07:48:13.625Z,64.72
2023-03-07T07:53:18.743Z,63.85
2023-03-07T07:58:21.059Z,63.03
2023-03-07T08:03:23.794Z,62.59
2023-03-07T08:08:26.258Z,62.27
2023-03-07T08:13:28.700Z,61.60
2023-03-07T08:18:30.364Z,61.28
2023-03-07T08:23:32.219Z,60.50
2023-03-07T08:28:34.520Z,60.34
2023-03-07T08:33:36.232Z,60.34
2023-03-07T08:38:37.952Z,59.68
2023-03-07T08:43:39.875Z,60.66
2023-03-07T08:48:41.655Z,60.27
2023-03-07T08:53:44.874Z,59.42
2023-03-07T08:58:46.914Z,60.20
2023-03-07T09:03:48.657Z,59.76
2023-03-07T09:08:50.654Z,58.32
2023-03-07T09:13:53.331Z,58.59
2023-03-07T09:18:55.342Z,58.17
2023-03-07T09:23:57.118Z,58.20
2023-03-07T09:28:59.141Z,57.50
2023-03-07T09:34:00.821Z,57.55
2023-03-07T09:39:04.235Z,58.25
2023-03-07T09:44:33.174Z,57.45
2023-03-07T09:49:51.687Z,56.22
2023-03-07T09:55:00.566Z,54.86
2023-03-07T10:00:11.231Z,53.67
2023-03-07T10:05:38.852Z,52.53
2023-03-07T10:10:44.527Z,50.53
2023-03-07T10:15:50.742Z,50.32
2023-03-07T10:20:57.161Z,49.71
2023-03-07T10:26:09.635Z,48.87
2023-03-07T10:31:31.959Z,49.10
2023-03-07T10:36:51.571Z,49.74
2023-03-07T10:41:57.551Z,50.31
2023-03-07T10:47:00.162Z,50.87
2023-03-07T10:52:07.223Z,50.82
2023-03-07T10:57:13.188Z,51.38
2023-03-07T11:02:37.690Z,51.57
2023-03-07T11:07:39.623Z,52.65
2023-03-07T11:12:46.230Z,51.82
2023-03-07T11:17:49.070Z,51.53
2023-03-07T11:23:24.240Z,50.81
2023-03-07T11:28:31.861Z,50.75
2023-03-07T11:33:59.115Z,50.73
2023-03-07T11:39:05.348Z,51.65
2023-03-07T11:44:32.079Z,51.32
2023-03-07T11:49:53.336Z,51.94
2023-03-07T11:54:57.948Z,51.33
2023-03-07T12:00:22.350Z,51.41
2023-03-07T12:05:33.366Z,52.05
2023-03-07T12:10:43.805Z,51.97
2023-03-07T12:16:00.923Z,51.39
2023-03-07T12:21:22.815Z,50.20
2023-03-07T12:26:56.338Z,50.43
2023-03-07T12:32:03.359Z,50.81
2023-03-07T12:37:17.176Z,50.73
2023-03-07T12:42:43.592Z,50.72
2023-03-07T12:48:05.604Z,51.30
2023-03-07T12:53:09.966Z,51.26
2023-03-07T12:58:31.956Z,49.82
2023-03-07T13:04:04.185Z,49.75
2023-03-07T13:09:06.641Z,50.10
2023-03-07T13:14:30.640Z,50.40
2023-03-07T13:19:35.606Z,51.09
2023-03-07T13:24:40.133Z,51.48
2023-03-07T13:30:03.647Z,50.93
2023-03-07T13:35:09.843Z,51.13
2023-03-07T13:40:30.431Z,51.75
2023-03-07T13:45:38.385Z,51.97
2023-03-07T13:50:43.169Z,52.25
2023-03-07T13:55:47.432Z,52.63
2023-03-07T14:00:58.367Z,52.86
2023-03-07T14:06:07.935Z,53.28
2023-03-07T14:11:27.336Z,53.35
2023-03-07T14:16:38.313Z,53.59
2023-03-07T14:21:48.945Z,52.80
2023-03-07T14:26:56.664Z,51.92
2023-03-07T14:32:00.844Z,52.24
2023-03-07T14:37:08.956Z,51.81
2023-03-07T14:42:52.774Z,51.59
2023-03-07T14:48:00.359Z,51.58
2023-03-07T14:53:20.868Z,52.05
2023-03-07T14:58:27.080Z,52.79
2023-03-07T15:03:29.344Z,52.67
2023-03-07T15:08:35.168Z,52.88
2023-03-07T15:13:42.008Z,53.31
2023-03-07T15:18:49.749Z,53.27
2023-03-07T15:23:57.332Z,53.44
2023-03-07T15:29:08.848Z,54.02
2023-03-07T15:34:20.711Z,54.32
2023-03-07T15:39:28.675Z,54.74
2023-03-07T15:44:30.724Z,55.18
2023-03-07T15:49:43.578Z,55.43
2023-03-07T15:54:51.518Z,55.99
2023-03-07T16:00:08.801Z,56.75
2023-03-07T16:05:20.233Z,57.26
2023-03-07T16:10:27.025Z,57.95
2023-03-07T16:15:29.365Z,58.55
2023-03-07T16:20:31.139Z,59.05
2023-03-07T16:25:33.274Z,59.52
2023-03-07T16:30:34.957Z,59.76
2023-03-07T16:35:36.822Z,60.06
2023-03-07T16:40:43.991Z,60.34
2023-03-07T16:45:45.737Z,60.69
2023-03-07T16:50:47.429Z,60.78
2023-03-07T16:55:49.797Z,60.79
2023-03-07T17:00:52.534Z,60.70
2023-03-07T17:05:54.259Z,60.92
2023-03-07T17:10:56.104Z,61.19
2023-03-07T17:15:58.368Z,61.41
2023-03-07T17:21:00.167Z,61.62
2023-03-07T17:26:02.115Z,61.79
2023-03-07T17:31:03.905Z,62.21
2023-03-07T17:36:06.422Z,62.36
2023-03-07T17:41:08.407Z,61.06
2023-03-07T17:46:11.798Z,60.50
2023-03-07T17:51:13.521Z,60.22
2023-03-07T17:56:15.266Z,60.73
2023-03-07T18:01:17.845Z,61.11
2023-03-07T18:06:19.617Z,61.05
2023-03-07T18:11:21.388Z,61.42
2023-03-07T18:16:23.985Z,62.14
2023-03-07T18:21:26.649Z,62.57
2023-03-07T18:26:28.817Z,63.32
2023-03-07T18:31:30.552Z,63.83
2023-03-07T18:36:32.736Z,64.55
2023-03-07T18:41:34.676Z,64.79
2023-03-07T18:46:37.392Z,64.53
2023-03-07T18:51:39.796Z,64.68
2023-03-07T18:56:42.774Z,65.14
2023-03-07T19:01:45.774Z,65.98
2023-03-07T19:06:48.635Z,65.98
2023-03-07T19:11:50.581Z,66.13
2023-03-07T19:16:52.660Z,66.72
2023-03-07T19:21:54.940Z,67.08
2023-03-07T19:26:57.848Z,67.22
2023-03-07T19:31:59.823Z,67.31
2023-03-07T19:37:01.920Z,67.41
2023-03-07T19:42:04.538Z,67.81
2023-03-07T19:47:06.489Z,67.99
2023-03-07T19:52:09.399Z,68.58
2023-03-07T19:57:15.094Z,68.70
2023-03-07T20:02:17.036Z,68.60
2023-03-07T20:07:18.808Z,68.93
2023-03-07T20:12:20.592Z,68.90
2023-03-07T20:17:22.347Z,69.21
2023-03-07T20:22:24.711Z,69.18
2023-03-07T20:27:27.163Z,69.17
2023-03-07T20:32:31.409Z,68.98
2023-03-07T20:37:34.081Z,68.85
2023-03-07T20:42:35.839Z,69.03
2023-03-07T20:47:38.502Z,68.80
2023-03-07T20:52:40.318Z,69.01
2023-03-07T20:57:42.191Z,69.17
2023-03-07T21:02:45.429Z,68.96
2023-03-07T21:07:50.128Z,69.21
2023-03-07T21:12:51.858Z,69.24
2023-03-07T21:17:53.804Z,69.31
2023-03-07T21:22:55.503Z,69.50
2023-03-07T21:27:57.260Z,69.54
2023-03-07T21:32:59.040Z,69.81
2023-03-07T21:38:00.745Z,69.91
2023-03-07T21:43:02.486Z,69.97
2023-03-07T21:48:04.281Z,69.97
2023-03-07T21:53:06.337Z,69.95
2023-03-07T21:58:08.195Z,69.98
2023-03-07T22:03:09.999Z,70.37
2023-03-07T22:08:12.830Z,70.50
2023-03-07T22:13:18.753Z,70.70
2023-03-07T22:18:21.786Z,70.88
2023-03-07T22:23:24.157Z,70.89
2023-03-07T22:28:26.020Z,70.97
2023-03-07T22:33:29.941Z,70.75
2023-03-07T22:38:32.250Z,71.15
2023-03-07T22:43:36.126Z,71.17
2023-03-07T22:48:38.943Z,71.59
2023-03-07T22:54:02.482Z,72.04
2023-03-07T22:59:05.534Z,72.37
2023-03-07T23:04:08.153Z,72.90
2023-03-07T23:09:10.270Z,72.92
2023-03-07T23:14:12.168Z,73.20
2023-03-07T23:19:14.748Z,73.07
2023-03-07T23:24:16.608Z,73.49
2023-03-07T23:29:18.402Z,73.54
2023-03-07T23:34:20.370Z,73.92
2023-03-07T23:39:22.202Z,74.04
2023-03-07T23:44:24.001Z,73.95
2023-03-07T23:49:26.045Z,74.28
2023-03-07T23:54:27.850Z,74.23
2023-03-07T23:59:29.725Z,74.17
